Saturday, February 24, 2018, 12:05 PM CST
Back to Local

KMDW, Chicago Midway Airport

Location: Chicago, IL, United States Lat: 41.783
Local Time: 12:05 PM CST (18:05 GMT) Lon: -87.75
Time Zone: US/Central Elev: 620 ft

Show me the last for .
Show Decoded

2018-02-24 11:53 METAR KMDW 241753Z 07010G18KT 10SM BKN016 OVC075 04/00 A3003 RMK AO2 PRESFR
                 SLP178 T00390000 10039 20017 58044 =
2018-02-24 10:53 METAR KMDW 241653Z 07010KT 10SM BKN017 OVC080 03/00 A3010 RMK AO2 SLP201
                 T00330000 =
2018-02-24 10:37 METAR KMDW 241637Z 07010KT 10SM BKN017 OVC080 03/00 A3011 RMK AO2 T00330000 =
2018-02-24 09:53 METAR KMDW 241553Z 07012KT 10SM FEW020 OVC090 03/M01 A3013 RMK AO2 SLP211
                 T00281006 =
2018-02-24 08:53 METAR KMDW 241453Z 08012KT 10SM BKN095 OVC200 02/M01 A3016 RMK AO2 SLP221
                 T00221006 56008 =
2018-02-24 07:53 METAR KMDW 241353Z 07012KT 8SM SCT019 OVC095 02/M01 A3016 RMK AO2 SLP224
                 T00171011 =
2018-02-24 06:53 METAR KMDW 241253Z 07015KT 9SM FEW014 OVC018 02/M02 A3017 RMK AO2 SLP225
                 T00171017 =
2018-02-24 06:37 METAR KMDW 241237Z 07017KT 9SM SCT014 OVC018 02/M01 A3017 RMK AO2 T00171011 =
2018-02-24 05:53 METAR KMDW 241153Z 07015KT 7SM BKN011 OVC014 02/M01 A3019 RMK AO2 SLP231
                 T00171006 10022 20017 56015 =
2018-02-24 04:53 METAR KMDW 241053Z 07011KT 7SM BKN011 OVC022 02/00 A3019 RMK AO2 SLP231
                 T00220000 =
2018-02-24 04:44 METAR KMDW 241044Z 05014KT 7SM BKN011 OVC023 02/00 A3019 RMK AO2 T00220000 =
2018-02-24 04:22 METAR KMDW 241022Z 06016KT 7SM BKN023 OVC170 02/00 A3020 RMK AO2 T00220000 =
2018-02-24 03:53 METAR KMDW 240953Z COR 04009KT 7SM FEW015 SCT023 OVC170 02/M01 A3021 RMK AO2
                 SLP238 T00171006 =
2018-02-24 02:53 METAR KMDW 240853Z 03007KT 8SM OVC180 02/M02 A3023 RMK AO2 SLP245 T00171017
                 55006 =
2018-02-24 01:53 METAR KMDW 240753Z 02006KT 8SM OVC160 02/M02 A3023 RMK AO2 SLP244 T00171017 =
2018-02-24 00:53 METAR KMDW 240653Z 36007KT 8SM FEW160 OVC200 02/M02 A3023 RMK AO2 SLP244
                 T00171017 =
2018-02-23 23:53 METAR KMDW 240553Z 34008KT 8SM BKN170 OVC300 02/M01 A3025 RMK AO2 SLP252
                 T00171011 10039 20017 400720017 58003 =
2018-02-23 23:14 METAR KMDW 240514Z 33007KT 9SM SCT017 OVC250 02/M01 A3026 RMK AO2 T00221011 =
2018-02-23 22:53 METAR KMDW 240453Z 31008KT 9SM OVC016 03/00 A3027 RMK AO2 SLP257 T00280000 =
2018-02-23 21:53 METAR KMDW 240353Z 28004KT 10SM OVC018 04/01 A3027 RMK AO2 SLP256 T00390006 =
2018-02-23 20:53 METAR KMDW 240253Z 27006KT 10SM BKN019 OVC180 04/01 A3026 RMK AO2 SLP253
                 T00390006 51004 =
2018-02-23 19:53 METAR KMDW 240153Z 28006KT 10SM OVC020 04/01 A3025 RMK AO2 SLP252 T00390006 =
2018-02-23 18:53 METAR KMDW 240053Z 28006KT 10SM OVC020 04/01 A3025 RMK AO2 SLP252 T00390006 =
2018-02-23 17:53 METAR KMDW 232353Z 28005KT 10SM OVC015 04/01 A3025 RMK AO2 SLP250 T00390011
                 10056 20039 53012 =
2018-02-23 16:53 METAR KMDW 232253Z 26012KT 10SM OVC014 04/01 A3023 RMK AO2 SLP244 T00390011 =
2018-02-23 15:53 METAR KMDW 232153Z 27010KT 10SM OVC010 04/02 A3022 RMK AO2 SLP241 T00390022 =
2018-02-23 14:53 METAR KMDW 232053Z 27015G20KT 10SM OVC011 04/02 A3021 RMK AO2 SLP237 T00440022
                 53013 =
2018-02-23 13:53 METAR KMDW 231953Z 27011KT 10SM OVC012 05/03 A3018 RMK AO2 SLP228 T00500028 =
2018-02-23 12:53 METAR KMDW 231853Z 27013KT 10SM OVC011 05/03 A3018 RMK AO2 SLP228 T00500028 =
2018-02-23 12:20 METAR KMDW 231820Z 27012G19KT 10SM OVC010 05/03 A3018 RMK AO2 T00500033 =

Support USWX by starting your Amazon purchase here.